createdAt,value
2022-08-17T00:00:43.756Z,99312.46
2022-08-17T00:01:29.308Z,99309.11
2022-08-17T00:02:34.437Z,99311.75
2022-08-17T00:03:44.126Z,99310.79
2022-08-17T00:04:50.426Z,99314.67
2022-08-17T00:06:08.829Z,99316.31
2022-08-17T00:07:11.132Z,99311.75
2022-08-17T00:08:15.517Z,99314.39
2022-08-17T00:09:19.036Z,99315.35
2022-08-17T00:10:23.213Z,99308.80
2022-08-17T00:11:28.949Z,99310.48
2022-08-17T00:12:41.281Z,99311.84
2022-08-17T00:13:38.784Z,99307.35
2022-08-17T00:14:41.099Z,99314.55
2022-08-17T00:15:44.665Z,99310.13
2022-08-17T00:16:57.286Z,99312.63
2022-08-17T00:17:54.765Z,99310.95
2022-08-17T00:19:08.412Z,99307.35
2022-08-17T00:20:08.886Z,99315.69
2022-08-17T00:21:11.783Z,99305.28
2022-08-17T00:22:31.234Z,99314.58
2022-08-17T00:23:22.287Z,99310.42
2022-08-17T00:24:24.551Z,99306.78
2022-08-17T00:25:27.809Z,99308.42
2022-08-17T00:26:43.593Z,99304.64
2022-08-17T00:27:35.481Z,99303.94
2022-08-17T00:28:38.806Z,99304.08
2022-08-17T00:29:41.455Z,99305.56
2022-08-17T00:30:51.061Z,99306.38
2022-08-17T00:31:51.514Z,99301.83
2022-08-17T00:33:12.568Z,99305.89
2022-08-17T00:33:57.785Z,99305.75
2022-08-17T00:34:59.822Z,99306.31
2022-08-17T00:36:02.107Z,99306.45
2022-08-17T00:37:05.588Z,99308.52
2022-08-17T00:38:08.610Z,99304.64
2022-08-17T00:39:11.886Z,99310.34
2022-08-17T00:40:15.771Z,99304.55
2022-08-17T00:41:22.102Z,99311.91
2022-08-17T00:42:27.582Z,99301.13
2022-08-17T00:43:41.089Z,99305.85
2022-08-17T00:44:44.847Z,99307.95
2022-08-17T00:45:48.423Z,99308.80
2022-08-17T00:46:50.729Z,99307.02
2022-08-17T00:47:53.018Z,99303.53
2022-08-17T00:48:55.226Z,99304.39
2022-08-17T00:49:57.489Z,99303.78
2022-08-17T00:51:09.358Z,99300.58
2022-08-17T00:52:17.576Z,99306.67
2022-08-17T00:53:20.441Z,99303.47
2022-08-17T00:54:29.010Z,99299.73
2022-08-17T00:55:31.506Z,99301.73
2022-08-17T00:56:38.079Z,99307.63
2022-08-17T00:57:43.858Z,99297.62
2022-08-17T00:58:46.892Z,99296.38
2022-08-17T01:00:02.384Z,99301.97
2022-08-17T01:01:00.580Z,99299.05
2022-08-17T01:02:04.998Z,99298.95
2022-08-17T01:03:10.752Z,99299.33
2022-08-17T01:04:14.685Z,99298.38
2022-08-17T01:05:20.609Z,99304.22
2022-08-17T01:06:24.730Z,99311.16
2022-08-17T01:07:27.197Z,99305.89
2022-08-17T01:08:31.088Z,99301.30
2022-08-17T01:09:33.659Z,99298.41
2022-08-17T01:10:59.918Z,99299.80
2022-08-17T01:11:45.626Z,99301.73
2022-08-17T01:12:48.527Z,99296.45
2022-08-17T01:13:51.177Z,99299.09
2022-08-17T01:14:53.573Z,99302.55
2022-08-17T01:16:02.642Z,99302.11
2022-08-17T01:17:06.166Z,99298.38
2022-08-17T01:18:11.224Z,99298.95
2022-08-17T01:19:19.999Z,99296.99
2022-08-17T01:20:23.284Z,99303.69
2022-08-17T01:21:55.908Z,99300.05
2022-08-17T01:22:59.209Z,99300.05
2022-08-17T01:24:01.835Z,99292.58
2022-08-17T01:25:08.494Z,99292.19
2022-08-17T01:26:11.609Z,99286.20
2022-08-17T01:27:16.349Z,99292.05
2022-08-17T01:28:36.186Z,99287.34
2022-08-17T01:29:27.369Z,99287.06
2022-08-17T01:30:57.072Z,99291.37
2022-08-17T01:31:39.643Z,99292.08
2022-08-17T01:32:42.024Z,99285.14
2022-08-17T01:33:44.393Z,99286.09
2022-08-17T01:34:50.191Z,99286.92
2022-08-17T01:35:50.656Z,99286.92
2022-08-17T01:36:53.435Z,99283.43
2022-08-17T01:37:55.678Z,99287.59
2022-08-17T01:38:57.860Z,99285.92
2022-08-17T01:40:03.559Z,99285.67
2022-08-17T01:41:09.514Z,99287.91
2022-08-17T01:42:27.587Z,99286.09
2022-08-17T01:43:33.359Z,99286.56
2022-08-17T01:44:35.813Z,99289.19
2022-08-17T01:45:43.352Z,99286.81
2022-08-17T01:46:45.777Z,99281.54
2022-08-17T01:47:48.999Z,99276.98
2022-08-17T01:48:51.740Z,99278.91
2022-08-17T01:49:54.507Z,99279.61
2022-08-17T01:50:56.848Z,99276.13
2022-08-17T01:52:08.358Z,99278.77
2022-08-17T01:53:14.018Z,99279.61
2022-08-17T01:54:18.445Z,99274.34
2022-08-17T01:55:27.329Z,99275.02
2022-08-17T01:56:30.816Z,99276.02
2022-08-17T01:57:33.455Z,99277.66
2022-08-17T01:58:36.968Z,99279.05
2022-08-17T01:59:39.283Z,99271.00
2022-08-17T02:00:59.380Z,99276.27
2022-08-17T02:01:48.274Z,99271.00
2022-08-17T02:02:50.751Z,99269.87
2022-08-17T02:04:00.926Z,99263.99
2022-08-17T02:04:59.012Z,99263.99
2022-08-17T02:06:02.411Z,99276.69
2022-08-17T02:07:04.632Z,99271.81
2022-08-17T02:08:06.819Z,99279.70
2022-08-17T02:09:12.218Z,99278.75
2022-08-17T02:10:20.128Z,99273.59
2022-08-17T02:11:21.470Z,99272.52
2022-08-17T02:12:37.656Z,99273.91
2022-08-17T02:13:27.804Z,99275.59
2022-08-17T02:14:30.307Z,99275.59
2022-08-17T02:15:32.880Z,99280.58
2022-08-17T02:16:38.326Z,99270.32
2022-08-17T02:17:41.284Z,99273.39
2022-08-17T02:18:44.213Z,99279.36
2022-08-17T02:19:46.313Z,99270.89
2022-08-17T02:20:49.388Z,99275.06
2022-08-17T02:21:54.026Z,99273.91
2022-08-17T02:22:57.456Z,99266.50
2022-08-17T02:23:59.802Z,99266.50
2022-08-17T02:25:03.670Z,99271.38
2022-08-17T02:26:07.938Z,99273.73
2022-08-17T02:27:10.266Z,99267.26
2022-08-17T02:28:12.783Z,99270.00
2022-08-17T02:29:15.188Z,99268.08
2022-08-17T02:30:50.218Z,99263.38
2022-08-17T02:31:22.226Z,99263.95
2022-08-17T02:32:28.447Z,99264.52
2022-08-17T02:33:43.275Z,99260.64
2022-08-17T02:34:35.622Z,99262.32
2022-08-17T02:35:38.322Z,99269.27
2022-08-17T02:36:41.051Z,99266.77
2022-08-17T02:37:43.158Z,99270.36
2022-08-17T02:38:47.164Z,99266.20
2022-08-17T02:39:49.411Z,99271.57
2022-08-17T02:40:51.789Z,99271.14
2022-08-17T02:42:01.539Z,99268.90
2022-08-17T02:43:03.777Z,99271.38
2022-08-17T02:44:06.769Z,99272.44
2022-08-17T02:45:12.729Z,99270.91
2022-08-17T02:46:17.136Z,99260.52
2022-08-17T02:47:19.189Z,99258.55
2022-08-17T02:48:31.172Z,99260.14
2022-08-17T02:49:26.365Z,99253.34
2022-08-17T02:50:29.418Z,99260.55
2022-08-17T02:51:32.181Z,99260.05
2022-08-17T02:52:43.238Z,99255.06
2022-08-17T02:53:40.502Z,99263.67
2022-08-17T02:54:42.769Z,99259.09
2022-08-17T02:55:44.945Z,99266.98
2022-08-17T02:56:47.197Z,99257.92
2022-08-17T02:57:50.842Z,99255.97
2022-08-17T02:58:53.228Z,99255.72
2022-08-17T02:59:55.275Z,99250.98
2022-08-17T03:00:58.165Z,99254.05
2022-08-17T03:02:03.699Z,99251.17
2022-08-17T03:03:09.433Z,99257.97
2022-08-17T03:04:11.769Z,99257.97
2022-08-17T03:05:17.502Z,99255.20
2022-08-17T03:06:20.008Z,99260.71
2022-08-17T03:07:22.075Z,99255.72
2022-08-17T03:08:24.525Z,99259.31
2022-08-17T03:09:27.648Z,99249.23
2022-08-17T03:10:30.071Z,99256.16
2022-08-17T03:11:32.327Z,99254.95
2022-08-17T03:12:36.949Z,99257.59
2022-08-17T03:13:39.408Z,99260.71
2022-08-17T03:14:42.555Z,99256.55
2022-08-17T03:15:47.028Z,99259.07
2022-08-17T03:16:49.358Z,99255.20
2022-08-17T03:17:52.666Z,99251.28
2022-08-17T03:18:55.006Z,99249.50
2022-08-17T03:19:56.982Z,99252.66
2022-08-17T03:21:00.969Z,99252.38
2022-08-17T03:22:34.670Z,99249.61
2022-08-17T03:23:10.616Z,99252.38
2022-08-17T03:24:13.263Z,99249.61
2022-08-17T03:25:23.642Z,99257.13
2022-08-17T03:26:29.662Z,99260.55
2022-08-17T03:27:31.724Z,99255.97
2022-08-17T03:28:33.902Z,99246.98
2022-08-17T03:29:36.037Z,99249.61
2022-08-17T03:30:38.917Z,99245.91
2022-08-17T03:31:41.060Z,99244.10
2022-08-17T03:32:46.276Z,99242.04
2022-08-17T03:33:48.440Z,99242.48
2022-08-17T03:34:50.612Z,99248.06
2022-08-17T03:35:52.872Z,99246.01
2022-08-17T03:36:55.435Z,99245.87
2022-08-17T03:38:00.384Z,99246.44
2022-08-17T03:39:02.620Z,99244.23
2022-08-17T03:40:06.721Z,99243.98
2022-08-17T03:41:09.535Z,99246.09
2022-08-17T03:42:32.052Z,99247.77
2022-08-17T03:43:22.613Z,99252.06
2022-08-17T03:44:24.771Z,99245.80
2022-08-17T03:45:26.928Z,99247.09
2022-08-17T03:46:34.476Z,99246.55
2022-08-17T03:47:35.442Z,99240.06
2022-08-17T03:48:37.698Z,99253.80
2022-08-17T03:49:39.734Z,99246.18
2022-08-17T03:50:41.997Z,99251.05
2022-08-17T03:51:44.275Z,99251.31
2022-08-17T03:52:51.828Z,99248.25
2022-08-17T03:53:56.779Z,99248.11
2022-08-17T03:54:58.754Z,99252.02
2022-08-17T03:56:04.735Z,99248.27
2022-08-17T03:57:09.155Z,99253.29
2022-08-17T03:58:11.445Z,99252.19
2022-08-17T03:59:22.404Z,99253.85
2022-08-17T04:00:21.195Z,99255.78
2022-08-17T04:01:24.316Z,99255.53
2022-08-17T04:02:32.468Z,99256.94
2022-08-17T04:03:34.903Z,99258.84
2022-08-17T04:04:38.255Z,99252.60
2022-08-17T04:05:42.048Z,99261.67
2022-08-17T04:06:45.387Z,99263.76
2022-08-17T04:07:47.476Z,99260.86
2022-08-17T04:08:49.565Z,99260.31
2022-08-17T04:09:51.742Z,99263.92
2022-08-17T04:10:55.778Z,99256.72
2022-08-17T04:12:00.304Z,99258.66
2022-08-17T04:13:03.575Z,99260.59
2022-08-17T04:14:06.548Z,99260.33
2022-08-17T04:15:09.506Z,99266.98
2022-08-17T04:16:12.784Z,99258.81
2022-08-17T04:17:14.648Z,99256.73
2022-08-17T04:18:18.547Z,99253.94
2022-08-17T04:19:20.689Z,99257.14
2022-08-17T04:20:24.745Z,99263.12
2022-08-17T04:21:27.192Z,99258.95
2022-08-17T04:22:33.235Z,99264.23
2022-08-17T04:23:33.496Z,99257.69
2022-08-17T04:24:36.419Z,99250.34
2022-08-17T04:25:41.676Z,99257.28
2022-08-17T04:26:52.210Z,99254.34
2022-08-17T04:27:48.093Z,99256.45
2022-08-17T04:28:50.151Z,99263.93
2022-08-17T04:29:55.626Z,99266.45
2022-08-17T04:30:56.619Z,99261.84
2022-08-17T04:31:59.232Z,99254.78
2022-08-17T04:33:07.097Z,99260.05
2022-08-17T04:34:10.067Z,99260.05
2022-08-17T04:35:18.738Z,99252.53
2022-08-17T04:36:21.852Z,99251.56
2022-08-17T04:37:24.104Z,99254.77
2022-08-17T04:38:32.624Z,99247.27
2022-08-17T04:39:35.314Z,99246.45
2022-08-17T04:40:38.334Z,99248.79
2022-08-17T04:41:40.497Z,99242.54
2022-08-17T04:42:49.529Z,99245.18
2022-08-17T04:43:54.567Z,99243.52
2022-08-17T04:44:57.233Z,99256.00
2022-08-17T04:46:02.287Z,99248.94
2022-08-17T04:47:04.721Z,99253.09
2022-08-17T04:48:07.206Z,99251.16
2022-08-17T04:49:10.885Z,99259.48
2022-08-17T04:50:14.334Z,99254.34
2022-08-17T04:51:21.179Z,99257.67
2022-08-17T04:52:29.815Z,99260.61
2022-08-17T04:53:27.789Z,99257.27
2022-08-17T04:54:30.125Z,99250.05
2022-08-17T04:55:32.184Z,99252.13
2022-08-17T04:56:38.485Z,99247.55
2022-08-17T04:57:44.578Z,99256.14
2022-08-17T04:58:50.980Z,99243.80
2022-08-17T04:59:53.226Z,99246.98
2022-08-17T05:00:55.630Z,99250.61
2022-08-17T05:01:57.993Z,99244.91
2022-08-17T05:03:00.428Z,99239.19
2022-08-17T05:04:21.331Z,99250.05
2022-08-17T05:05:10.682Z,99243.11
2022-08-17T05:06:15.496Z,99241.16
2022-08-17T05:07:22.591Z,99252.27
2022-08-17T05:08:21.757Z,99243.91
2022-08-17T05:09:23.918Z,99244.33
2022-08-17T05:10:31.004Z,99249.03
2022-08-17T05:11:34.147Z,99243.05
2022-08-17T05:12:36.292Z,99244.02
2022-08-17T05:13:38.482Z,99248.19
2022-08-17T05:14:40.641Z,99242.23
2022-08-17T05:15:47.858Z,99245.00
2022-08-17T05:16:49.764Z,99238.20
2022-08-17T05:17:52.031Z,99245.00
2022-08-17T05:18:55.111Z,99241.39
2022-08-17T05:19:58.490Z,99236.41
2022-08-17T05:21:02.197Z,99241.11
2022-08-17T05:22:05.573Z,99248.61
2022-08-17T05:23:11.016Z,99247.34
2022-08-17T05:24:38.363Z,99252.47
2022-08-17T05:25:20.127Z,99247.61
2022-08-17T05:26:27.612Z,99247.45
2022-08-17T05:27:35.499Z,99258.41
2022-08-17T05:28:36.757Z,99248.78
2022-08-17T05:29:40.272Z,99252.81
2022-08-17T05:30:44.032Z,99248.89
2022-08-17T05:31:46.906Z,99247.64
2022-08-17T05:32:55.484Z,99255.14
2022-08-17T05:33:58.429Z,99251.14
2022-08-17T05:35:00.941Z,99254.87
2022-08-17T05:36:06.209Z,99250.66
2022-08-17T05:37:08.339Z,99255.36
2022-08-17T05:38:11.000Z,99250.21
2022-08-17T05:39:15.920Z,99257.55
2022-08-17T05:40:21.266Z,99247.36
2022-08-17T05:41:24.139Z,99249.18
2022-08-17T05:42:26.490Z,99251.13
2022-08-17T05:43:32.124Z,99248.87
2022-08-17T05:44:35.417Z,99244.97
2022-08-17T05:45:54.337Z,99252.42
2022-08-17T05:46:51.422Z,99249.18
2022-08-17T05:47:53.476Z,99254.56
2022-08-17T05:48:59.257Z,99257.61
2022-08-17T05:50:02.344Z,99256.32
2022-08-17T05:51:16.115Z,99251.41
2022-08-17T05:52:27.640Z,99254.05
2022-08-17T05:53:38.732Z,99260.63
2022-08-17T05:55:06.412Z,99252.16
2022-08-17T05:56:29.454Z,99242.41
2022-08-17T05:57:43.596Z,99250.94
2022-08-17T05:59:01.215Z,99252.61
2022-08-17T06:00:22.239Z,99250.78
2022-08-17T06:01:42.067Z,99250.18
2022-08-17T06:03:16.132Z,99251.47
2022-08-17T06:04:54.010Z,99248.38
2022-08-17T06:06:31.819Z,99248.84
2022-08-17T06:07:50.523Z,99250.05
2022-08-17T06:10:19.338Z,99245.22
2022-08-17T06:11:40.003Z,99250.14
2022-08-17T06:13:08.092Z,99256.33
2022-08-17T06:14:28.747Z,99256.98
2022-08-17T06:15:40.748Z,99252.38
2022-08-17T06:16:46.671Z,99252.02
2022-08-17T06:17:56.224Z,99247.33
2022-08-17T06:19:07.804Z,99253.44
2022-08-17T06:20:14.313Z,99248.15
2022-08-17T06:21:19.247Z,99246.56
2022-08-17T06:22:26.788Z,99248.76
2022-08-17T06:23:41.226Z,99250.19
2022-08-17T06:24:57.810Z,99254.87
2022-08-17T06:26:03.496Z,99252.67
2022-08-17T06:27:15.021Z,99250.19
2022-08-17T06:28:20.767Z,99253.73
2022-08-17T06:29:59.605Z,99248.85
2022-08-17T06:31:15.151Z,99251.39
2022-08-17T06:32:18.541Z,99255.41
2022-08-17T06:33:24.383Z,99257.79
2022-08-17T06:34:26.495Z,99255.19
2022-08-17T06:35:34.826Z,99252.89
2022-08-17T06:36:49.855Z,99253.52
2022-08-17T06:38:17.273Z,99246.37
2022-08-17T06:39:20.983Z,99256.04
2022-08-17T06:40:37.069Z,99255.06
2022-08-17T06:41:51.586Z,99258.23
2022-08-17T06:43:15.806Z,99254.73
2022-08-17T06:44:47.576Z,99252.44
2022-08-17T06:45:38.344Z,99257.48
2022-08-17T06:46:50.067Z,99255.48
2022-08-17T06:48:14.145Z,99259.04
2022-08-17T06:49:20.387Z,99248.35
2022-08-17T06:50:27.525Z,99250.19
2022-08-17T06:51:41.964Z,99250.36
2022-08-17T06:52:54.101Z,99251.39
2022-08-17T06:54:11.885Z,99248.41
2022-08-17T06:55:18.938Z,99245.23
2022-08-17T06:56:25.166Z,99246.86
2022-08-17T06:57:32.748Z,99253.36
2022-08-17T06:58:37.846Z,99246.13
2022-08-17T06:59:56.235Z,99249.12
2022-08-17T07:00:58.828Z,99252.11
2022-08-17T07:02:04.449Z,99251.59
2022-08-17T07:03:16.106Z,99254.42
2022-08-17T07:04:28.582Z,99250.78
2022-08-17T07:05:36.998Z,99250.41
2022-08-17T07:06:48.826Z,99251.09
2022-08-17T07:09:32.395Z,99251.46
2022-08-17T07:10:38.200Z,99253.44
2022-08-17T07:11:57.556Z,99256.91
2022-08-17T07:13:03.237Z,99255.06
2022-08-17T07:14:27.120Z,99254.34
2022-08-17T07:15:33.264Z,99253.83
2022-08-17T07:16:46.180Z,99262.34
2022-08-17T07:17:50.077Z,99258.06
2022-08-17T07:18:54.781Z,99261.42
2022-08-17T07:20:00.637Z,99261.42
2022-08-17T07:22:57.371Z,99264.92
2022-08-17T07:23:49.317Z,99268.91
2022-08-17T07:25:00.979Z,99258.30
2022-08-17T07:26:08.558Z,99265.71
2022-08-17T07:27:17.363Z,99265.88
2022-08-17T07:28:22.194Z,99264.05
2022-08-17T07:29:25.161Z,99260.41
2022-08-17T07:30:49.531Z,99260.74
2022-08-17T07:31:56.105Z,99267.55
2022-08-17T07:33:04.004Z,99272.03
2022-08-17T07:34:09.268Z,99270.56
2022-08-17T07:35:21.036Z,99278.22
2022-08-17T07:36:29.788Z,99274.15
2022-08-17T07:37:31.579Z,99274.81
2022-08-17T07:38:34.581Z,99272.34
2022-08-17T07:39:37.355Z,99274.50
2022-08-17T07:40:57.798Z,99271.17
2022-08-17T07:42:04.548Z,99273.01
2022-08-17T07:44:20.313Z,99261.91
2022-08-17T07:45:23.379Z,99266.72
2022-08-17T07:46:37.876Z,99267.22
2022-08-17T07:47:40.107Z,99264.22
2022-08-17T07:48:44.969Z,99268.53
2022-08-17T07:49:49.301Z,99270.52
2022-08-17T07:50:54.416Z,99273.35
2022-08-17T07:52:24.139Z,99266.23
2022-08-17T07:53:23.387Z,99279.98
2022-08-17T07:54:32.340Z,99268.87
2022-08-17T07:55:34.457Z,99275.00
2022-08-17T07:56:43.070Z,99275.00
2022-08-17T07:57:48.815Z,99275.84
2022-08-17T07:58:54.554Z,99278.98
2022-08-17T08:00:03.335Z,99275.17
2022-08-17T08:01:13.995Z,99277.52
2022-08-17T08:02:24.169Z,99276.34
2022-08-17T08:03:28.534Z,99275.18
2022-08-17T08:04:59.702Z,99269.87
2022-08-17T08:05:55.303Z,99270.88
2022-08-17T08:07:01.050Z,99273.17
2022-08-17T08:08:06.849Z,99270.84
2022-08-17T08:09:12.717Z,99269.85
2022-08-17T08:10:36.347Z,99267.87
2022-08-17T08:11:43.766Z,99270.02
2022-08-17T08:12:46.266Z,99267.87
2022-08-17T08:13:49.537Z,99272.36
2022-08-17T08:15:01.804Z,99272.86
2022-08-17T08:16:20.373Z,99278.48
2022-08-17T08:17:39.979Z,99269.03
2022-08-17T08:18:56.764Z,99273.34
2022-08-17T08:19:59.968Z,99270.05
2022-08-17T08:21:08.507Z,99270.55
2022-08-17T08:22:14.276Z,99271.36
2022-08-17T08:23:37.398Z,99270.50
2022-08-17T08:24:58.424Z,99272.32
2022-08-17T08:26:22.487Z,99268.63
2022-08-17T08:27:34.379Z,99270.45
2022-08-17T08:28:58.315Z,99267.09
2022-08-17T08:30:10.133Z,99269.27
2022-08-17T08:31:21.641Z,99258.94
2022-08-17T08:32:30.535Z,99270.37
2022-08-17T08:34:08.092Z,99262.88
2022-08-17T08:35:44.894Z,99267.80
2022-08-17T08:37:19.280Z,99269.91
2022-08-17T08:38:21.959Z,99278.14
2022-08-17T08:39:30.462Z,99271.77
2022-08-17T08:40:45.222Z,99264.79
2022-08-17T08:41:54.136Z,99268.41
2022-08-17T08:43:24.352Z,99264.89
2022-08-17T08:45:00.116Z,99268.70
2022-08-17T08:46:19.828Z,99263.71
2022-08-17T08:47:35.454Z,99271.06
2022-08-17T08:49:12.249Z,99267.13
2022-08-17T08:50:40.581Z,99264.79
2022-08-17T08:51:58.666Z,99267.83
2022-08-17T08:53:13.666Z,99254.23
2022-08-17T08:54:26.670Z,99267.36
2022-08-17T08:55:48.259Z,99264.17
2022-08-17T08:57:33.950Z,99266.54
2022-08-17T08:58:42.676Z,99262.88
2022-08-17T09:00:10.123Z,99261.80
2022-08-17T09:01:32.506Z,99265.50
2022-08-17T09:02:54.863Z,99256.62
2022-08-17T09:04:19.540Z,99258.09
2022-08-17T09:05:40.982Z,99253.44
2022-08-17T09:07:01.890Z,99258.38
2022-08-17T09:08:13.990Z,99260.52
2022-08-17T09:09:25.345Z,99260.52
2022-08-17T09:10:51.047Z,99256.95
2022-08-17T09:12:03.988Z,99260.75
2022-08-17T09:13:23.018Z,99254.63
2022-08-17T09:14:29.503Z,99257.75
2022-08-17T09:15:47.633Z,99262.60
2022-08-17T09:17:22.568Z,99268.53
2022-08-17T09:19:02.891Z,99262.88
2022-08-17T09:19:57.876Z,99254.30
2022-08-17T09:21:10.111Z,99260.23
2022-08-17T09:22:30.753Z,99254.38
2022-08-17T09:23:40.871Z,99258.33
2022-08-17T09:24:55.252Z,99256.22
2022-08-17T09:26:18.621Z,99256.06
2022-08-17T09:27:33.668Z,99262.67
2022-08-17T09:28:39.497Z,99256.09
2022-08-17T09:29:48.522Z,99254.02
2022-08-17T09:30:54.757Z,99259.16
2022-08-17T09:32:00.320Z,99250.77
2022-08-17T09:33:07.178Z,99250.50
2022-08-17T09:34:12.965Z,99251.70
2022-08-17T09:36:34.506Z,99263.06
2022-08-17T09:37:55.330Z,99259.78
2022-08-17T09:39:04.139Z,99263.99
2022-08-17T09:40:13.508Z,99255.17
2022-08-17T09:41:25.459Z,99264.28
2022-08-17T09:42:35.498Z,99263.00
2022-08-17T09:43:50.264Z,99255.91
2022-08-17T09:45:15.353Z,99258.45
2022-08-17T09:46:21.760Z,99260.30
2022-08-17T09:47:39.437Z,99258.09
2022-08-17T09:48:47.823Z,99255.16
2022-08-17T09:49:56.421Z,99259.36
2022-08-17T09:51:22.049Z,99256.27
2022-08-17T09:52:27.398Z,99260.84
2022-08-17T09:53:31.851Z,99259.89
2022-08-17T09:54:40.149Z,99258.52
2022-08-17T09:55:55.656Z,99248.20
2022-08-17T09:57:29.358Z,99254.75
2022-08-17T09:58:40.214Z,99263.02
2022-08-17T09:59:49.034Z,99256.61
2022-08-17T10:00:58.822Z,99255.20
2022-08-17T10:02:28.125Z,99250.67
2022-08-17T10:03:39.061Z,99252.58
2022-08-17T10:04:51.980Z,99255.87
2022-08-17T10:06:14.632Z,99251.94
2022-08-17T10:07:26.457Z,99241.92
2022-08-17T10:08:47.556Z,99251.86
2022-08-17T10:09:57.013Z,99249.48
2022-08-17T10:11:38.963Z,99246.73
2022-08-17T10:12:47.190Z,99246.16
2022-08-17T10:13:59.656Z,99248.36
2022-08-17T10:17:00.302Z,99250.34
2022-08-17T10:18:21.346Z,99252.23
2022-08-17T10:19:44.091Z,99243.58
2022-08-17T10:21:10.685Z,99245.88
2022-08-17T10:23:48.393Z,99245.49
2022-08-17T10:25:01.910Z,99240.06
2022-08-17T10:26:12.206Z,99238.02
2022-08-17T10:27:17.615Z,99241.00
2022-08-17T10:29:51.581Z,99235.56
2022-08-17T10:31:10.718Z,99237.16
2022-08-17T10:32:07.814Z,99239.33
2022-08-17T10:33:20.346Z,99235.69
2022-08-17T10:34:51.421Z,99242.33
2022-08-17T10:36:15.415Z,99239.09
2022-08-17T10:37:44.914Z,99243.83
2022-08-17T10:40:18.959Z,99237.01
2022-08-17T10:41:24.905Z,99247.39
2022-08-17T10:42:33.101Z,99234.95
2022-08-17T10:44:38.694Z,99238.77
2022-08-17T10:45:33.820Z,99244.58
2022-08-17T10:46:49.249Z,99242.05
2022-08-17T10:48:05.056Z,99243.61
2022-08-17T10:49:20.180Z,99251.49
2022-08-17T10:52:03.006Z,99240.33
2022-08-17T10:53:05.149Z,99238.44
2022-08-17T10:54:26.464Z,99234.78
2022-08-17T10:55:28.587Z,99232.98
2022-08-17T10:56:47.266Z,99230.34
2022-08-17T10:57:51.083Z,99234.81
2022-08-17T10:58:56.699Z,99228.80
2022-08-17T11:00:11.457Z,99228.77
2022-08-17T11:01:14.005Z,99233.03
2022-08-17T11:02:22.830Z,99236.20
2022-08-17T11:03:26.325Z,99228.02
2022-08-17T11:06:06.363Z,99227.89
2022-08-17T11:07:26.652Z,99230.14
2022-08-17T11:08:47.226Z,99233.64
2022-08-17T11:10:18.474Z,99224.17
2022-08-17T11:11:30.135Z,99231.77
2022-08-17T11:12:55.871Z,99224.02
2022-08-17T11:15:30.891Z,99226.84
2022-08-17T11:16:59.910Z,99224.30
2022-08-17T11:18:20.907Z,99230.70
2022-08-17T11:19:49.432Z,99224.97
2022-08-17T11:21:26.033Z,99226.70
2022-08-17T11:22:51.917Z,99233.13
2022-08-17T11:24:20.374Z,99224.28
2022-08-17T11:25:32.096Z,99221.61
2022-08-17T11:26:37.837Z,99222.86
2022-08-17T11:27:41.459Z,99223.31
2022-08-17T11:28:53.035Z,99226.21
2022-08-17T11:30:02.864Z,99224.58
2022-08-17T11:31:08.996Z,99215.95
2022-08-17T11:32:35.019Z,99221.30
2022-08-17T11:33:46.687Z,99212.84
2022-08-17T11:34:49.271Z,99224.58
2022-08-17T11:37:32.549Z,99215.09
2022-08-17T11:38:38.231Z,99214.30
2022-08-17T11:39:52.701Z,99211.80
2022-08-17T11:41:21.456Z,99212.41
2022-08-17T11:42:45.324Z,99214.26
2022-08-17T11:44:08.420Z,99204.78
2022-08-17T11:45:33.468Z,99201.08
2022-08-17T11:46:50.972Z,99201.50
2022-08-17T11:48:24.208Z,99208.48
2022-08-17T11:49:13.531Z,99208.90
2022-08-17T11:50:28.020Z,99201.89
2022-08-17T11:51:53.801Z,99203.54
2022-08-17T11:52:57.417Z,99196.12
2022-08-17T11:54:31.728Z,99194.25
2022-08-17T11:55:38.205Z,99188.26
2022-08-17T11:56:48.077Z,99192.19
2022-08-17T11:57:57.130Z,99184.58
2022-08-17T11:59:01.569Z,99181.66
2022-08-17T12:00:09.813Z,99188.88
2022-08-17T12:01:24.363Z,99189.30
2022-08-17T12:02:31.530Z,99190.31
2022-08-17T12:03:38.115Z,99188.04
2022-08-17T12:04:43.968Z,99188.22
2022-08-17T12:05:47.208Z,99183.88
2022-08-17T12:06:56.673Z,99181.59
2022-08-17T12:08:08.944Z,99186.50
2022-08-17T12:09:22.545Z,99180.26
2022-08-17T12:10:29.084Z,99188.34
2022-08-17T12:11:55.575Z,99183.98
2022-08-17T12:12:41.483Z,99185.24
2022-08-17T12:13:49.974Z,99179.83
2022-08-17T12:15:10.551Z,99188.72
2022-08-17T12:16:15.860Z,99187.28
2022-08-17T12:17:39.706Z,99194.67
2022-08-17T12:18:29.174Z,99189.89
2022-08-17T12:19:33.085Z,99191.52
2022-08-17T12:20:42.880Z,99195.88
2022-08-17T12:22:04.742Z,99188.17
2022-08-17T12:23:13.362Z,99191.63
2022-08-17T12:26:07.158Z,99181.47
2022-08-17T12:27:13.260Z,99177.95
2022-08-17T12:29:39.859Z,99176.25
2022-08-17T12:30:45.983Z,99181.29
2022-08-17T12:31:51.571Z,99172.57
2022-08-17T12:32:55.691Z,99177.90
2022-08-17T12:33:58.101Z,99168.34
2022-08-17T12:35:00.765Z,99166.25
2022-08-17T12:36:06.825Z,99162.05
2022-08-17T12:37:22.159Z,99165.86
2022-08-17T12:38:32.031Z,99157.94
2022-08-17T12:39:29.866Z,99165.48
2022-08-17T12:40:36.049Z,99179.68
2022-08-17T12:41:41.039Z,99168.69
2022-08-17T12:43:59.282Z,99170.20
2022-08-17T12:45:02.028Z,99173.53
2022-08-17T12:46:13.259Z,99165.27
2022-08-17T12:47:21.002Z,99166.70
2022-08-17T12:48:25.916Z,99169.97
2022-08-17T12:49:34.649Z,99171.53
2022-08-17T12:50:41.161Z,99180.95
2022-08-17T12:51:46.627Z,99172.14
2022-08-17T12:52:49.460Z,99173.61
2022-08-17T12:53:54.884Z,99173.32
2022-08-17T12:55:00.715Z,99177.80
2022-08-17T12:56:06.641Z,99173.41
2022-08-17T12:58:32.318Z,99173.50
2022-08-17T12:59:38.067Z,99173.50
2022-08-17T13:00:47.536Z,99172.09
2022-08-17T13:01:47.880Z,99177.37
2022-08-17T13:02:59.970Z,99177.06
2022-08-17T13:04:04.758Z,99177.70
2022-08-17T13:05:10.668Z,99175.53
2022-08-17T13:07:31.677Z,99179.17
2022-08-17T13:08:40.595Z,99185.12
2022-08-17T13:09:46.423Z,99184.07
2022-08-17T13:11:08.871Z,99190.91
2022-08-17T13:12:08.744Z,99188.84
2022-08-17T13:13:23.312Z,99188.53
2022-08-17T13:14:26.901Z,99197.38
2022-08-17T13:15:38.604Z,99199.88
2022-08-17T13:16:49.440Z,99199.57
2022-08-17T13:18:00.685Z,99203.08
2022-08-17T13:20:27.142Z,99197.70
2022-08-17T13:21:29.872Z,99203.84
2022-08-17T13:22:32.044Z,99205.97
2022-08-17T13:23:34.551Z,99203.56
2022-08-17T13:24:42.049Z,99209.66
2022-08-17T13:25:56.984Z,99201.28
2022-08-17T13:27:07.810Z,99200.94
2022-08-17T13:28:11.127Z,99200.31
2022-08-17T13:29:23.457Z,99202.13
2022-08-17T13:30:30.490Z,99199.13
2022-08-17T13:31:44.085Z,99206.30
2022-08-17T13:32:45.190Z,99198.59
2022-08-17T13:33:50.129Z,99195.30
2022-08-17T13:35:14.123Z,99192.66
2022-08-17T13:36:07.805Z,99194.78
2022-08-17T13:37:24.709Z,99195.02
2022-08-17T13:38:43.345Z,99190.09
2022-08-17T13:39:45.651Z,99196.05
2022-08-17T13:40:51.258Z,99208.11
2022-08-17T13:41:54.424Z,99205.41
2022-08-17T13:42:57.120Z,99205.06
2022-08-17T13:43:59.744Z,99209.80
2022-08-17T13:45:01.772Z,99196.92
2022-08-17T13:46:21.794Z,99201.77
2022-08-17T13:47:24.699Z,99203.41
2022-08-17T13:48:30.301Z,99207.64
2022-08-17T13:49:49.078Z,99203.03
2022-08-17T13:51:00.543Z,99201.71
2022-08-17T13:52:03.512Z,99198.63
2022-08-17T13:53:31.154Z,99202.12